sensor_id;sensor_type;location;lat;lon;timestamp;P1;durP1;ratioP1;P2;durP2;ratioP2
78183;SDS011;67442;44.570;18.610;2023-08-01T00:00:52;5.10;;;1.80;;
78183;SDS011;67442;44.570;18.610;2023-08-01T00:03:24;5.63;;;2.00;;
78183;SDS011;67442;44.570;18.610;2023-08-01T00:05:55;4.90;;;1.85;;
78183;SDS011;67442;44.570;18.610;2023-08-01T00:08:26;4.45;;;1.90;;
78183;SDS011;67442;44.570;18.610;2023-08-01T00:10:53;3.30;;;1.98;;
78183;SDS011;67442;44.570;18.610;2023-08-01T00:13:21;3.97;;;2.00;;
78183;SDS011;67442;44.570;18.610;2023-08-01T00:15:48;3.33;;;1.83;;
78183;SDS011;67442;44.570;18.610;2023-08-01T00:18:15;4.95;;;2.03;;
78183;SDS011;67442;44.570;18.610;2023-08-01T00:20:42;4.72;;;2.15;;
78183;SDS011;67442;44.570;18.610;2023-08-01T00:23:10;2.20;;;1.60;;
78183;SDS011;67442;44.570;18.610;2023-08-01T00:25:37;4.40;;;2.05;;
78183;SDS011;67442;44.570;18.610;2023-08-01T00:28:04;3.42;;;1.92;;
78183;SDS011;67442;44.570;18.610;2023-08-01T00:30:31;5.05;;;2.10;;
78183;SDS011;67442;44.570;18.610;2023-08-01T00:33:02;2.88;;;1.80;;
78183;SDS011;67442;44.570;18.610;2023-08-01T00:35:29;3.05;;;1.70;;
78183;SDS011;67442;44.570;18.610;2023-08-01T00:37:56;3.60;;;1.88;;
78183;SDS011;67442;44.570;18.610;2023-08-01T00:40:29;3.70;;;2.00;;
78183;SDS011;67442;44.570;18.610;2023-08-01T00:42:56;4.03;;;1.88;;
78183;SDS011;67442;44.570;18.610;2023-08-01T00:45:27;4.45;;;1.73;;
78183;SDS011;67442;44.570;18.610;2023-08-01T00:48:11;4.65;;;2.20;;
78183;SDS011;67442;44.570;18.610;2023-08-01T00:50:38;3.47;;;1.92;;
78183;SDS011;67442;44.570;18.610;2023-08-01T00:53:05;3.00;;;1.65;;
78183;SDS011;67442;44.570;18.610;2023-08-01T00:55:32;4.00;;;2.15;;
78183;SDS011;67442;44.570;18.610;2023-08-01T00:57:59;3.95;;;1.85;;
78183;SDS011;67442;44.570;18.610;2023-08-01T01:00:26;5.28;;;2.10;;
78183;SDS011;67442;44.570;18.610;2023-08-01T01:02:54;1.85;;;1.52;;
78183;SDS011;67442;44.570;18.610;2023-08-01T01:05:22;4.55;;;2.00;;
78183;SDS011;67442;44.570;18.610;2023-08-01T01:07:50;2.80;;;1.67;;
78183;SDS011;67442;44.570;18.610;2023-08-01T01:10:22;3.47;;;1.70;;
78183;SDS011;67442;44.570;18.610;2023-08-01T01:12:49;2.65;;;1.70;;
78183;SDS011;67442;44.570;18.610;2023-08-01T01:15:17;2.92;;;1.55;;
78183;SDS011;67442;44.570;18.610;2023-08-01T01:17:44;3.22;;;1.90;;
78183;SDS011;67442;44.570;18.610;2023-08-01T01:20:11;3.33;;;1.73;;
78183;SDS011;67442;44.570;18.610;2023-08-01T01:22:39;4.65;;;1.70;;
78183;SDS011;67442;44.570;18.610;2023-08-01T01:25:06;8.65;;;1.90;;
78183;SDS011;67442;44.570;18.610;2023-08-01T01:27:35;6.95;;;2.03;;
78183;SDS011;67442;44.570;18.610;2023-08-01T01:30:04;4.80;;;1.77;;
78183;SDS011;67442;44.570;18.610;2023-08-01T01:32:33;4.75;;;1.98;;
78183;SDS011;67442;44.570;18.610;2023-08-01T01:35:05;3.17;;;2.08;;
78183;SDS011;67442;44.570;18.610;2023-08-01T01:37:33;2.70;;;1.52;;
78183;SDS011;67442;44.570;18.610;2023-08-01T01:40:04;2.35;;;1.70;;
78183;SDS011;67442;44.570;18.610;2023-08-01T01:42:33;3.25;;;2.10;;
78183;SDS011;67442;44.570;18.610;2023-08-01T01:45:00;4.55;;;1.48;;
78183;SDS011;67442;44.570;18.610;2023-08-01T01:47:27;2.95;;;1.80;;
78183;SDS011;67442;44.570;18.610;2023-08-01T01:49:54;3.08;;;1.70;;
78183;SDS011;67442;44.570;18.610;2023-08-01T01:52:21;2.67;;;1.70;;
78183;SDS011;67442;44.570;18.610;2023-08-01T01:54:48;2.35;;;1.65;;
78183;SDS011;67442;44.570;18.610;2023-08-01T01:57:16;3.25;;;1.90;;
78183;SDS011;67442;44.570;18.610;2023-08-01T01:59:43;3.08;;;1.63;;
78183;SDS011;67442;44.570;18.610;2023-08-01T02:02:14;2.72;;;1.80;;
78183;SDS011;67442;44.570;18.610;2023-08-01T02:04:41;4.45;;;1.85;;
78183;SDS011;67442;44.570;18.610;2023-08-01T02:07:08;2.70;;;1.85;;
78183;SDS011;67442;44.570;18.610;2023-08-01T02:09:39;4.32;;;1.60;;
78183;SDS011;67442;44.570;18.610;2023-08-01T02:12:06;2.47;;;1.65;;
78183;SDS011;67442;44.570;18.610;2023-08-01T02:14:35;2.42;;;1.67;;
78183;SDS011;67442;44.570;18.610;2023-08-01T02:17:02;6.70;;;1.77;;
78183;SDS011;67442;44.570;18.610;2023-08-01T02:19:29;2.53;;;1.63;;
78183;SDS011;67442;44.570;18.610;2023-08-01T02:21:57;2.97;;;1.38;;
78183;SDS011;67442;44.570;18.610;2023-08-01T02:24:24;3.15;;;1.70;;
78183;SDS011;67442;44.570;18.610;2023-08-01T02:26:51;3.15;;;1.55;;
78183;SDS011;67442;44.570;18.610;2023-08-01T02:29:18;3.53;;;1.85;;
78183;SDS011;67442;44.570;18.610;2023-08-01T02:31:46;6.57;;;2.00;;
78183;SDS011;67442;44.570;18.610;2023-08-01T02:34:13;2.53;;;1.50;;
78183;SDS011;67442;44.570;18.610;2023-08-01T02:36:40;3.47;;;1.65;;
78183;SDS011;67442;44.570;18.610;2023-08-01T02:39:08;3.67;;;1.67;;
78183;SDS011;67442;44.570;18.610;2023-08-01T02:41:35;2.80;;;1.60;;
78183;SDS011;67442;44.570;18.610;2023-08-01T02:44:03;3.28;;;1.83;;
78183;SDS011;67442;44.570;18.610;2023-08-01T02:46:30;4.63;;;1.77;;
78183;SDS011;67442;44.570;18.610;2023-08-01T02:48:58;3.67;;;1.48;;
78183;SDS011;67442;44.570;18.610;2023-08-01T02:51:25;2.55;;;1.48;;
78183;SDS011;67442;44.570;18.610;2023-08-01T02:53:52;2.22;;;1.52;;
78183;SDS011;67442;44.570;18.610;2023-08-01T02:56:20;4.93;;;1.83;;
78183;SDS011;67442;44.570;18.610;2023-08-01T02:58:47;2.92;;;1.38;;
78183;SDS011;67442;44.570;18.610;2023-08-01T03:01:14;2.75;;;1.48;;
78183;SDS011;67442;44.570;18.610;2023-08-01T03:03:41;3.20;;;1.60;;
78183;SDS011;67442;44.570;18.610;2023-08-01T03:06:13;3.22;;;1.70;;
78183;SDS011;67442;44.570;18.610;2023-08-01T03:08:41;2.58;;;1.50;;
78183;SDS011;67442;44.570;18.610;2023-08-01T03:11:08;2.67;;;1.40;;
78183;SDS011;67442;44.570;18.610;2023-08-01T03:13:36;2.35;;;1.40;;
78183;SDS011;67442;44.570;18.610;2023-08-01T03:16:03;1.77;;;1.30;;
78183;SDS011;67442;44.570;18.610;2023-08-01T03:18:34;6.50;;;1.92;;
78183;SDS011;67442;44.570;18.610;2023-08-01T03:21:01;2.95;;;1.50;;
78183;SDS011;67442;44.570;18.610;2023-08-01T03:23:29;5.88;;;1.60;;
78183;SDS011;67442;44.570;18.610;2023-08-01T03:25:57;2.10;;;1.55;;
78183;SDS011;67442;44.570;18.610;2023-08-01T03:28:24;2.90;;;1.45;;
78183;SDS011;67442;44.570;18.610;2023-08-01T03:30:55;3.13;;;1.58;;
78183;SDS011;67442;44.570;18.610;2023-08-01T03:33:22;4.60;;;1.35;;
78183;SDS011;67442;44.570;18.610;2023-08-01T03:35:50;3.85;;;1.67;;
78183;SDS011;67442;44.570;18.610;2023-08-01T03:38:17;4.13;;;1.65;;
78183;SDS011;67442;44.570;18.610;2023-08-01T03:40:44;3.90;;;1.52;;
78183;SDS011;67442;44.570;18.610;2023-08-01T03:43:12;4.68;;;1.55;;
78183;SDS011;67442;44.570;18.610;2023-08-01T03:45:39;2.97;;;1.70;;
78183;SDS011;67442;44.570;18.610;2023-08-01T03:48:06;3.88;;;1.80;;
78183;SDS011;67442;44.570;18.610;2023-08-01T03:50:33;6.38;;;1.65;;
78183;SDS011;67442;44.570;18.610;2023-08-01T03:53:01;4.68;;;1.52;;
78183;SDS011;67442;44.570;18.610;2023-08-01T03:55:28;3.80;;;1.60;;
78183;SDS011;67442;44.570;18.610;2023-08-01T03:57:55;3.00;;;1.60;;
78183;SDS011;67442;44.570;18.610;2023-08-01T04:00:22;2.42;;;1.50;;
78183;SDS011;67442;44.570;18.610;2023-08-01T04:02:50;3.90;;;1.45;;
78183;SDS011;67442;44.570;18.610;2023-08-01T04:05:17;3.45;;;1.38;;
78183;SDS011;67442;44.570;18.610;2023-08-01T04:07:45;5.22;;;1.63;;
78183;SDS011;67442;44.570;18.610;2023-08-01T04:10:11;3.80;;;1.40;;
78183;SDS011;67442;44.570;18.610;2023-08-01T04:12:38;3.25;;;1.55;;
78183;SDS011;67442;44.570;18.610;2023-08-01T04:15:08;4.45;;;1.48;;
78183;SDS011;67442;44.570;18.610;2023-08-01T04:17:36;2.50;;;1.52;;
78183;SDS011;67442;44.570;18.610;2023-08-01T04:20:03;2.75;;;1.30;;
78183;SDS011;67442;44.570;18.610;2023-08-01T04:22:32;4.03;;;1.38;;
78183;SDS011;67442;44.570;18.610;2023-08-01T04:25:00;2.13;;;1.55;;
78183;SDS011;67442;44.570;18.610;2023-08-01T04:27:28;3.08;;;1.60;;
78183;SDS011;67442;44.570;18.610;2023-08-01T04:29:55;5.55;;;1.90;;
78183;SDS011;67442;44.570;18.610;2023-08-01T04:32:23;2.60;;;1.45;;
78183;SDS011;67442;44.570;18.610;2023-08-01T04:34:50;3.03;;;1.42;;
78183;SDS011;67442;44.570;18.610;2023-08-01T04:37:20;2.33;;;1.40;;
78183;SDS011;67442;44.570;18.610;2023-08-01T04:39:48;2.33;;;1.48;;
78183;SDS011;67442;44.570;18.610;2023-08-01T04:42:15;13.75;;;2.40;;
78183;SDS011;67442;44.570;18.610;2023-08-01T04:44:46;17.08;;;3.83;;
78183;SDS011;67442;44.570;18.610;2023-08-01T04:47:14;27.85;;;6.18;;
78183;SDS011;67442;44.570;18.610;2023-08-01T04:49:40;36.13;;;7.00;;
78183;SDS011;67442;44.570;18.610;2023-08-01T04:52:07;49.38;;;10.00;;
78183;SDS011;67442;44.570;18.610;2023-08-01T04:54:35;58.75;;;12.05;;
78183;SDS011;67442;44.570;18.610;2023-08-01T04:57:02;71.70;;;14.57;;
78183;SDS011;67442;44.570;18.610;2023-08-01T04:59:29;63.53;;;12.50;;
78183;SDS011;67442;44.570;18.610;2023-08-01T05:01:57;60.90;;;13.63;;
78183;SDS011;67442;44.570;18.610;2023-08-01T05:04:25;58.28;;;13.85;;
78183;SDS011;67442;44.570;18.610;2023-08-01T05:06:56;53.28;;;11.55;;
78183;SDS011;67442;44.570;18.610;2023-08-01T05:09:27;61.40;;;11.38;;
78183;SDS011;67442;44.570;18.610;2023-08-01T05:11:58;43.80;;;10.88;;
78183;SDS011;67442;44.570;18.610;2023-08-01T05:14:25;42.25;;;10.35;;
78183;SDS011;67442;44.570;18.610;2023-08-01T05:16:53;42.45;;;10.48;;
78183;SDS011;67442;44.570;18.610;2023-08-01T05:19:20;44.15;;;9.55;;
78183;SDS011;67442;44.570;18.610;2023-08-01T05:21:47;29.77;;;7.28;;
78183;SDS011;67442;44.570;18.610;2023-08-01T05:24:14;23.17;;;6.70;;
78183;SDS011;67442;44.570;18.610;2023-08-01T05:26:46;14.55;;;5.15;;
78183;SDS011;67442;44.570;18.610;2023-08-01T05:29:13;11.05;;;4.78;;
78183;SDS011;67442;44.570;18.610;2023-08-01T05:31:40;14.23;;;4.25;;
78183;SDS011;67442;44.570;18.610;2023-08-01T05:34:08;11.48;;;3.78;;
78183;SDS011;67442;44.570;18.610;2023-08-01T05:36:35;6.00;;;3.15;;
78183;SDS011;67442;44.570;18.610;2023-08-01T05:39:03;6.53;;;2.90;;
78183;SDS011;67442;44.570;18.610;2023-08-01T05:41:29;5.35;;;2.85;;
78183;SDS011;67442;44.570;18.610;2023-08-01T05:43:57;7.47;;;3.35;;
78183;SDS011;67442;44.570;18.610;2023-08-01T05:46:24;4.82;;;2.83;;
78183;SDS011;67442;44.570;18.610;2023-08-01T05:48:50;7.28;;;2.97;;
78183;SDS011;67442;44.570;18.610;2023-08-01T05:51:18;4.10;;;2.58;;
78183;SDS011;67442;44.570;18.610;2023-08-01T05:53:45;6.43;;;2.80;;
78183;SDS011;67442;44.570;18.610;2023-08-01T05:56:13;4.20;;;2.80;;
78183;SDS011;67442;44.570;18.610;2023-08-01T05:58:40;4.07;;;2.80;;
78183;SDS011;67442;44.570;18.610;2023-08-01T06:01:09;4.40;;;2.58;;
78183;SDS011;67442;44.570;18.610;2023-08-01T06:03:37;8.80;;;3.20;;
78183;SDS011;67442;44.570;18.610;2023-08-01T06:06:05;5.55;;;3.55;;
78183;SDS011;67442;44.570;18.610;2023-08-01T06:08:32;6.93;;;3.38;;
78183;SDS011;67442;44.570;18.610;2023-08-01T06:10:59;3.90;;;2.95;;
78183;SDS011;67442;44.570;18.610;2023-08-01T06:13:27;6.90;;;3.50;;
78183;SDS011;67442;44.570;18.610;2023-08-01T06:15:54;6.95;;;3.00;;
78183;SDS011;67442;44.570;18.610;2023-08-01T06:18:21;5.28;;;2.97;;
78183;SDS011;67442;44.570;18.610;2023-08-01T06:20:49;4.00;;;2.78;;
78183;SDS011;67442;44.570;18.610;2023-08-01T06:23:16;5.43;;;3.38;;
78183;SDS011;67442;44.570;18.610;2023-08-01T06:25:47;6.78;;;3.00;;
78183;SDS011;67442;44.570;18.610;2023-08-01T06:28:14;3.92;;;2.75;;
78183;SDS011;67442;44.570;18.610;2023-08-01T06:30:42;4.15;;;2.95;;
78183;SDS011;67442;44.570;18.610;2023-08-01T06:33:09;6.22;;;3.17;;
78183;SDS011;67442;44.570;18.610;2023-08-01T06:35:36;5.45;;;2.78;;
78183;SDS011;67442;44.570;18.610;2023-08-01T06:38:04;4.40;;;3.08;;
78183;SDS011;67442;44.570;18.610;2023-08-01T06:40:31;3.72;;;2.60;;
78183;SDS011;67442;44.570;18.610;2023-08-01T06:42:58;4.45;;;2.92;;
78183;SDS011;67442;44.570;18.610;2023-08-01T06:45:25;3.78;;;2.80;;
78183;SDS011;67442;44.570;18.610;2023-08-01T06:47:52;3.88;;;2.50;;
78183;SDS011;67442;44.570;18.610;2023-08-01T06:50:20;4.57;;;2.83;;
78183;SDS011;67442;44.570;18.610;2023-08-01T06:52:48;4.30;;;2.83;;
78183;SDS011;67442;44.570;18.610;2023-08-01T06:55:15;5.70;;;2.88;;
78183;SDS011;67442;44.570;18.610;2023-08-01T06:57:46;5.22;;;3.10;;
78183;SDS011;67442;44.570;18.610;2023-08-01T07:00:17;8.82;;;2.78;;
78183;SDS011;67442;44.570;18.610;2023-08-01T07:02:45;5.10;;;2.50;;
78183;SDS011;67442;44.570;18.610;2023-08-01T07:05:12;3.10;;;2.40;;
78183;SDS011;67442;44.570;18.610;2023-08-01T07:07:40;4.10;;;2.58;;
78183;SDS011;67442;44.570;18.610;2023-08-01T07:10:07;4.82;;;2.50;;
78183;SDS011;67442;44.570;18.610;2023-08-01T07:12:36;4.68;;;2.60;;
78183;SDS011;67442;44.570;18.610;2023-08-01T07:15:09;4.30;;;2.70;;
78183;SDS011;67442;44.570;18.610;2023-08-01T07:17:38;5.90;;;2.65;;
78183;SDS011;67442;44.570;18.610;2023-08-01T07:20:05;4.10;;;2.30;;
78183;SDS011;67442;44.570;18.610;2023-08-01T07:22:34;3.97;;;2.60;;
78183;SDS011;67442;44.570;18.610;2023-08-01T07:25:01;4.75;;;2.60;;
78183;SDS011;67442;44.570;18.610;2023-08-01T07:27:28;4.55;;;2.30;;
78183;SDS011;67442;44.570;18.610;2023-08-01T07:29:56;5.07;;;2.50;;
78183;SDS011;67442;44.570;18.610;2023-08-01T07:32:23;4.32;;;2.58;;
78183;SDS011;67442;44.570;18.610;2023-08-01T07:34:49;4.22;;;2.58;;
78183;SDS011;67442;44.570;18.610;2023-08-01T07:37:17;5.13;;;2.53;;
78183;SDS011;67442;44.570;18.610;2023-08-01T07:39:44;4.28;;;2.70;;
78183;SDS011;67442;44.570;18.610;2023-08-01T07:42:11;3.72;;;2.55;;
78183;SDS011;67442;44.570;18.610;2023-08-01T07:44:38;3.22;;;2.28;;
78183;SDS011;67442;44.570;18.610;2023-08-01T07:47:06;4.97;;;2.78;;
78183;SDS011;67442;44.570;18.610;2023-08-01T07:49:33;4.15;;;2.67;;
78183;SDS011;67442;44.570;18.610;2023-08-01T07:52:04;5.40;;;2.72;;
78183;SDS011;67442;44.570;18.610;2023-08-01T07:54:32;3.47;;;2.60;;
78183;SDS011;67442;44.570;18.610;2023-08-01T07:56:59;7.72;;;2.40;;
78183;SDS011;67442;44.570;18.610;2023-08-01T07:59:27;7.82;;;2.80;;
78183;SDS011;67442;44.570;18.610;2023-08-01T08:01:54;3.95;;;2.47;;
78183;SDS011;67442;44.570;18.610;2023-08-01T08:04:21;4.13;;;2.60;;
78183;SDS011;67442;44.570;18.610;2023-08-01T08:06:49;5.13;;;2.70;;
78183;SDS011;67442;44.570;18.610;2023-08-01T08:09:17;4.38;;;2.85;;
78183;SDS011;67442;44.570;18.610;2023-08-01T08:11:45;4.82;;;2.70;;
78183;SDS011;67442;44.570;18.610;2023-08-01T08:14:12;5.22;;;2.67;;
78183;SDS011;67442;44.570;18.610;2023-08-01T08:16:40;6.03;;;2.95;;
78183;SDS011;67442;44.570;18.610;2023-08-01T08:19:11;3.92;;;2.90;;
78183;SDS011;67442;44.570;18.610;2023-08-01T08:21:38;3.85;;;2.50;;
78183;SDS011;67442;44.570;18.610;2023-08-01T08:24:06;6.03;;;3.10;;
78183;SDS011;67442;44.570;18.610;2023-08-01T08:26:33;4.10;;;2.97;;
78183;SDS011;67442;44.570;18.610;2023-08-01T08:29:03;8.55;;;3.30;;
78183;SDS011;67442;44.570;18.610;2023-08-01T08:31:31;4.43;;;2.83;;
78183;SDS011;67442;44.570;18.610;2023-08-01T08:33:58;4.57;;;3.22;;
78183;SDS011;67442;44.570;18.610;2023-08-01T08:36:25;4.13;;;3.08;;
78183;SDS011;67442;44.570;18.610;2023-08-01T08:38:52;4.93;;;3.33;;
78183;SDS011;67442;44.570;18.610;2023-08-01T08:41:21;4.32;;;3.03;;
78183;SDS011;67442;44.570;18.610;2023-08-01T08:43:49;3.97;;;2.90;;
78183;SDS011;67442;44.570;18.610;2023-08-01T08:46:29;6.20;;;3.13;;
78183;SDS011;67442;44.570;18.610;2023-08-01T08:48:57;4.30;;;2.80;;
78183;SDS011;67442;44.570;18.610;2023-08-01T08:51:26;4.28;;;2.80;;
78183;SDS011;67442;44.570;18.610;2023-08-01T08:53:55;4.13;;;2.88;;
78183;SDS011;67442;44.570;18.610;2023-08-01T08:56:23;4.32;;;3.13;;
78183;SDS011;67442;44.570;18.610;2023-08-01T08:58:50;5.35;;;3.10;;
78183;SDS011;67442;44.570;18.610;2023-08-01T09:01:17;6.03;;;3.10;;
78183;SDS011;67442;44.570;18.610;2023-08-01T09:03:45;4.38;;;2.85;;
78183;SDS011;67442;44.570;18.610;2023-08-01T09:06:13;4.75;;;2.45;;
78183;SDS011;67442;44.570;18.610;2023-08-01T09:09:09;3.78;;;2.85;;
78183;SDS011;67442;44.570;18.610;2023-08-01T09:11:49;4.60;;;2.95;;
78183;SDS011;67442;44.570;18.610;2023-08-01T09:14:20;3.78;;;2.88;;
78183;SDS011;67442;44.570;18.610;2023-08-01T09:16:47;4.50;;;2.90;;
78183;SDS011;67442;44.570;18.610;2023-08-01T09:19:18;6.18;;;3.40;;
78183;SDS011;67442;44.570;18.610;2023-08-01T09:21:46;4.47;;;3.08;;
78183;SDS011;67442;44.570;18.610;2023-08-01T09:24:14;6.88;;;3.30;;
78183;SDS011;67442;44.570;18.610;2023-08-01T09:26:45;5.35;;;3.20;;
78183;SDS011;67442;44.570;18.610;2023-08-01T09:29:16;4.30;;;3.05;;
78183;SDS011;67442;44.570;18.610;2023-08-01T09:34:23;4.60;;;2.83;;
78183;SDS011;67442;44.570;18.610;2023-08-01T09:36:51;6.20;;;2.80;;
78183;SDS011;67442;44.570;18.610;2023-08-01T09:39:25;5.35;;;3.05;;
78183;SDS011;67442;44.570;18.610;2023-08-01T09:41:57;5.20;;;2.85;;
78183;SDS011;67442;44.570;18.610;2023-08-01T09:44:28;5.93;;;3.47;;
78183;SDS011;67442;44.570;18.610;2023-08-01T09:47:00;4.25;;;2.90;;
78183;SDS011;67442;44.570;18.610;2023-08-01T09:49:30;3.97;;;2.70;;
78183;SDS011;67442;44.570;18.610;2023-08-01T09:52:00;3.33;;;2.78;;
78183;SDS011;67442;44.570;18.610;2023-08-01T09:54:28;4.30;;;2.83;;
78183;SDS011;67442;44.570;18.610;2023-08-01T09:56:59;4.55;;;2.92;;
78183;SDS011;67442;44.570;18.610;2023-08-01T09:59:30;5.57;;;3.20;;
78183;SDS011;67442;44.570;18.610;2023-08-01T10:01:57;6.13;;;2.78;;
78183;SDS011;67442;44.570;18.610;2023-08-01T10:04:29;6.18;;;3.33;;
78183;SDS011;67442;44.570;18.610;2023-08-01T10:06:57;4.22;;;3.15;;
78183;SDS011;67442;44.570;18.610;2023-08-01T10:09:25;5.22;;;3.00;;
78183;SDS011;67442;44.570;18.610;2023-08-01T10:11:53;5.07;;;3.17;;
78183;SDS011;67442;44.570;18.610;2023-08-01T10:14:27;4.22;;;2.90;;
78183;SDS011;67442;44.570;18.610;2023-08-01T10:16:54;4.35;;;2.95;;
78183;SDS011;67442;44.570;18.610;2023-08-01T10:19:21;3.63;;;2.85;;
78183;SDS011;67442;44.570;18.610;2023-08-01T10:21:48;6.15;;;2.90;;
78183;SDS011;67442;44.570;18.610;2023-08-01T10:24:16;3.92;;;3.00;;
78183;SDS011;67442;44.570;18.610;2023-08-01T10:26:46;4.45;;;3.10;;
78183;SDS011;67442;44.570;18.610;2023-08-01T10:29:13;4.18;;;2.90;;
78183;SDS011;67442;44.570;18.610;2023-08-01T10:31:50;5.32;;;2.92;;
78183;SDS011;67442;44.570;18.610;2023-08-01T10:34:18;4.10;;;2.80;;
78183;SDS011;67442;44.570;18.610;2023-08-01T10:36:53;4.82;;;3.10;;
78183;SDS011;67442;44.570;18.610;2023-08-01T10:39:22;5.63;;;3.40;;
78183;SDS011;67442;44.570;18.610;2023-08-01T10:42:04;4.53;;;3.13;;
78183;SDS011;67442;44.570;18.610;2023-08-01T10:44:32;5.30;;;3.28;;
78183;SDS011;67442;44.570;18.610;2023-08-01T10:47:14;3.70;;;2.80;;
78183;SDS011;67442;44.570;18.610;2023-08-01T10:49:52;4.53;;;3.28;;
78183;SDS011;67442;44.570;18.610;2023-08-01T10:52:24;4.75;;;3.05;;
78183;SDS011;67442;44.570;18.610;2023-08-01T10:55:02;4.32;;;3.33;;
78183;SDS011;67442;44.570;18.610;2023-08-01T10:57:31;5.88;;;3.55;;
78183;SDS011;67442;44.570;18.610;2023-08-01T11:00:00;5.70;;;3.20;;
78183;SDS011;67442;44.570;18.610;2023-08-01T11:02:36;3.90;;;3.00;;
78183;SDS011;67442;44.570;18.610;2023-08-01T11:05:04;3.80;;;2.75;;
78183;SDS011;67442;44.570;18.610;2023-08-01T11:07:33;3.97;;;2.85;;
78183;SDS011;67442;44.570;18.610;2023-08-01T11:12:31;3.70;;;2.40;;
78183;SDS011;67442;44.570;18.610;2023-08-01T11:15:08;3.73;;;2.70;;
78183;SDS011;67442;44.570;18.610;2023-08-01T11:17:37;4.13;;;2.75;;
78183;SDS011;67442;44.570;18.610;2023-08-01T11:20:09;3.40;;;2.60;;
78183;SDS011;67442;44.570;18.610;2023-08-01T11:22:37;3.83;;;3.03;;
78183;SDS011;67442;44.570;18.610;2023-08-01T11:25:05;4.28;;;2.80;;
78183;SDS011;67442;44.570;18.610;2023-08-01T11:27:33;6.72;;;3.17;;
78183;SDS011;67442;44.570;18.610;2023-08-01T11:30:01;4.53;;;3.05;;
78183;SDS011;67442;44.570;18.610;2023-08-01T11:32:33;3.95;;;2.90;;
78183;SDS011;67442;44.570;18.610;2023-08-01T11:35:02;3.55;;;2.55;;
78183;SDS011;67442;44.570;18.610;2023-08-01T11:37:29;4.28;;;2.75;;
78183;SDS011;67442;44.570;18.610;2023-08-01T11:39:56;4.35;;;2.97;;
78183;SDS011;67442;44.570;18.610;2023-08-01T11:42:24;4.10;;;2.72;;
78183;SDS011;67442;44.570;18.610;2023-08-01T11:45:11;3.40;;;2.58;;
78183;SDS011;67442;44.570;18.610;2023-08-01T11:47:59;3.20;;;2.58;;
78183;SDS011;67442;44.570;18.610;2023-08-01T11:50:26;4.55;;;2.78;;
78183;SDS011;67442;44.570;18.610;2023-08-01T11:52:54;5.60;;;2.85;;
78183;SDS011;67442;44.570;18.610;2023-08-01T11:55:21;4.57;;;2.97;;
78183;SDS011;67442;44.570;18.610;2023-08-01T11:57:58;3.95;;;2.50;;
78183;SDS011;67442;44.570;18.610;2023-08-01T12:00:26;5.95;;;2.83;;
78183;SDS011;67442;44.570;18.610;2023-08-01T12:03:06;4.10;;;2.90;;
78183;SDS011;67442;44.570;18.610;2023-08-01T12:05:41;3.67;;;2.83;;
78183;SDS011;67442;44.570;18.610;2023-08-01T12:08:31;5.75;;;3.05;;
78183;SDS011;67442;44.570;18.610;2023-08-01T12:11:24;4.20;;;3.00;;
78183;SDS011;67442;44.570;18.610;2023-08-01T12:14:14;5.70;;;2.88;;
78183;SDS011;67442;44.570;18.610;2023-08-01T12:16:42;6.50;;;3.00;;
78183;SDS011;67442;44.570;18.610;2023-08-01T12:19:17;5.05;;;2.92;;
78183;SDS011;67442;44.570;18.610;2023-08-01T12:21:46;7.83;;;3.10;;
78183;SDS011;67442;44.570;18.610;2023-08-01T12:24:14;5.82;;;3.05;;
78183;SDS011;67442;44.570;18.610;2023-08-01T12:26:43;4.50;;;2.80;;
78183;SDS011;67442;44.570;18.610;2023-08-01T12:29:10;3.78;;;2.55;;
78183;SDS011;67442;44.570;18.610;2023-08-01T12:31:40;3.58;;;2.75;;
78183;SDS011;67442;44.570;18.610;2023-08-01T12:34:07;4.28;;;2.83;;
78183;SDS011;67442;44.570;18.610;2023-08-01T12:36:34;8.23;;;3.20;;
78183;SDS011;67442;44.570;18.610;2023-08-01T12:39:02;5.63;;;3.20;;
78183;SDS011;67442;44.570;18.610;2023-08-01T12:41:30;6.32;;;3.13;;
78183;SDS011;67442;44.570;18.610;2023-08-01T12:43:57;4.32;;;2.95;;
78183;SDS011;67442;44.570;18.610;2023-08-01T12:46:25;4.82;;;3.17;;
78183;SDS011;67442;44.570;18.610;2023-08-01T12:48:52;5.13;;;2.72;;
78183;SDS011;67442;44.570;18.610;2023-08-01T12:51:19;4.40;;;3.08;;
78183;SDS011;67442;44.570;18.610;2023-08-01T12:53:46;4.75;;;3.00;;
78183;SDS011;67442;44.570;18.610;2023-08-01T12:56:13;4.50;;;3.20;;
78183;SDS011;67442;44.570;18.610;2023-08-01T12:58:41;6.95;;;3.22;;
78183;SDS011;67442;44.570;18.610;2023-08-01T13:01:09;3.85;;;2.95;;
78183;SDS011;67442;44.570;18.610;2023-08-01T13:03:41;5.57;;;2.83;;
78183;SDS011;67442;44.570;18.610;2023-08-01T13:06:11;6.00;;;2.90;;
78183;SDS011;67442;44.570;18.610;2023-08-01T13:08:57;5.75;;;3.53;;
78183;SDS011;67442;44.570;18.610;2023-08-01T13:11:24;5.57;;;3.00;;
78183;SDS011;67442;44.570;18.610;2023-08-01T13:13:52;7.78;;;3.55;;
78183;SDS011;67442;44.570;18.610;2023-08-01T13:16:19;4.60;;;2.90;;
78183;SDS011;67442;44.570;18.610;2023-08-01T13:18:46;5.10;;;3.00;;
78183;SDS011;67442;44.570;18.610;2023-08-01T13:21:13;4.30;;;2.78;;
78183;SDS011;67442;44.570;18.610;2023-08-01T13:23:41;3.95;;;2.78;;
78183;SDS011;67442;44.570;18.610;2023-08-01T13:26:09;7.13;;;2.78;;
78183;SDS011;67442;44.570;18.610;2023-08-01T13:28:36;4.53;;;3.05;;
78183;SDS011;67442;44.570;18.610;2023-08-01T13:31:04;5.57;;;3.25;;
78183;SDS011;67442;44.570;18.610;2023-08-01T13:33:30;4.47;;;3.05;;
78183;SDS011;67442;44.570;18.610;2023-08-01T13:35:58;4.72;;;2.85;;
78183;SDS011;67442;44.570;18.610;2023-08-01T13:38:29;4.80;;;2.92;;
78183;SDS011;67442;44.570;18.610;2023-08-01T13:40:58;4.78;;;2.90;;
78183;SDS011;67442;44.570;18.610;2023-08-01T13:43:26;3.90;;;2.80;;
78183;SDS011;67442;44.570;18.610;2023-08-01T13:45:52;4.03;;;3.10;;
78183;SDS011;67442;44.570;18.610;2023-08-01T13:48:20;4.00;;;2.70;;
78183;SDS011;67442;44.570;18.610;2023-08-01T13:50:47;4.10;;;2.92;;
78183;SDS011;67442;44.570;18.610;2023-08-01T13:53:14;3.97;;;2.60;;
78183;SDS011;67442;44.570;18.610;2023-08-01T13:55:42;3.15;;;2.45;;
78183;SDS011;67442;44.570;18.610;2023-08-01T13:58:14;4.78;;;2.92;;
78183;SDS011;67442;44.570;18.610;2023-08-01T14:00:41;4.65;;;2.95;;
78183;SDS011;67442;44.570;18.610;2023-08-01T14:03:12;4.43;;;2.92;;
78183;SDS011;67442;44.570;18.610;2023-08-01T14:05:40;3.92;;;2.65;;
78183;SDS011;67442;44.570;18.610;2023-08-01T14:08:07;4.22;;;3.10;;
78183;SDS011;67442;44.570;18.610;2023-08-01T14:10:34;4.90;;;3.20;;
78183;SDS011;67442;44.570;18.610;2023-08-01T14:13:00;4.15;;;2.85;;
78183;SDS011;67442;44.570;18.610;2023-08-01T14:15:28;4.45;;;3.28;;
78183;SDS011;67442;44.570;18.610;2023-08-01T14:17:55;7.85;;;3.38;;
78183;SDS011;67442;44.570;18.610;2023-08-01T14:20:22;5.03;;;3.22;;
78183;SDS011;67442;44.570;18.610;2023-08-01T14:22:50;6.05;;;3.35;;
78183;SDS011;67442;44.570;18.610;2023-08-01T14:25:17;4.45;;;3.28;;
78183;SDS011;67442;44.570;18.610;2023-08-01T14:27:44;5.15;;;3.60;;
78183;SDS011;67442;44.570;18.610;2023-08-01T14:30:12;5.13;;;3.50;;
78183;SDS011;67442;44.570;18.610;2023-08-01T14:32:39;6.90;;;3.40;;
78183;SDS011;67442;44.570;18.610;2023-08-01T14:35:06;4.68;;;3.00;;
78183;SDS011;67442;44.570;18.610;2023-08-01T14:37:36;5.32;;;3.00;;
78183;SDS011;67442;44.570;18.610;2023-08-01T14:40:03;6.43;;;3.38;;
78183;SDS011;67442;44.570;18.610;2023-08-01T14:42:37;6.80;;;3.13;;
78183;SDS011;67442;44.570;18.610;2023-08-01T14:45:08;5.80;;;3.17;;
78183;SDS011;67442;44.570;18.610;2023-08-01T14:47:40;3.92;;;3.03;;